Terminal Aerodrome Forecast
Issued by NWS Cleveland, OH

Home | Current Version | Previous Version | Graphics & Text | Print | Product List | Glossary On
Versions: 1 2 3 4 5 6 7 8 9 10 11 12 13 14 15 16 17 18 19 20 21 22
000
FTUS41 KCLE 011153 AAA
TAFMFD
TAF AMD
KMFD 011153Z 0112/0212 28006KT 6SM BR SCT003 BKN012
      TEMPO 0112/0114 2SM BR BKN003
     FM011400 29008KT P6SM BKN012 BKN035
      TEMPO 0114/0116 SCT012 BKN035
     FM011600 30010KT P6SM BKN050
     FM012000 30010KT P6SM SCT050
     FM020200 36002KT P6SM SKC=

USA.gov is the U.S. government's official web portal to all federal, state and local government web resources and services.